createdAt,value
2022-10-05T00:01:44.137Z,67.07
2022-10-05T00:04:21.067Z,67.20
2022-10-05T00:07:20.874Z,67.39
2022-10-05T00:09:56.819Z,67.29
2022-10-05T00:12:30.049Z,67.41
2022-10-05T00:15:02.480Z,67.13
2022-10-05T00:17:31.939Z,67.42
2022-10-05T00:20:02.659Z,67.28
2022-10-05T00:22:35.838Z,67.64
2022-10-05T00:25:22.948Z,67.61
2022-10-05T00:28:01.124Z,67.41
2022-10-05T00:30:34.951Z,67.66
2022-10-05T00:33:06.273Z,67.58
2022-10-05T00:35:36.545Z,67.55
2022-10-05T00:38:07.658Z,67.60
2022-10-05T00:41:01.843Z,67.54
2022-10-05T00:43:59.540Z,67.63
2022-10-05T00:46:53.794Z,67.79
2022-10-05T00:50:01.304Z,67.59
2022-10-05T00:52:43.850Z,67.84
2022-10-05T00:55:30.753Z,67.94
2022-10-05T00:58:23.421Z,68.05
2022-10-05T01:01:21.631Z,68.11
2022-10-05T01:04:14.027Z,67.96
2022-10-05T01:07:16.615Z,68.07
2022-10-05T01:09:58.839Z,67.91
2022-10-05T01:13:03.359Z,68.12
2022-10-05T01:15:59.253Z,68.09
2022-10-05T01:18:48.788Z,68.20
2022-10-05T01:21:25.212Z,68.23
2022-10-05T01:24:41.759Z,68.65
2022-10-05T01:27:39.412Z,68.48
2022-10-05T01:32:59.237Z,68.54
2022-10-05T01:35:36.098Z,68.62
2022-10-05T01:38:38.452Z,68.63
2022-10-05T01:41:19.898Z,68.54
2022-10-05T01:43:55.261Z,68.74
2022-10-05T01:46:52.692Z,68.63
2022-10-05T01:49:22.605Z,68.69
2022-10-05T01:51:54.449Z,68.66
2022-10-05T01:55:04.333Z,68.85
2022-10-05T01:58:13.867Z,68.77
2022-10-05T02:01:13.012Z,68.96
2022-10-05T02:04:09.139Z,68.95
2022-10-05T02:06:42.594Z,68.83
2022-10-05T02:09:20.103Z,68.94
2022-10-05T02:11:57.625Z,68.94
2022-10-05T02:14:34.843Z,69.04
2022-10-05T02:17:14.153Z,69.07
2022-10-05T02:19:49.296Z,69.29
2022-10-05T02:22:24.622Z,69.23
2022-10-05T02:24:59.606Z,69.32
2022-10-05T02:27:36.523Z,69.40
2022-10-05T02:30:11.691Z,69.32
2022-10-05T02:32:56.445Z,69.01
2022-10-05T02:35:26.455Z,69.33
2022-10-05T02:38:03.843Z,69.34
2022-10-05T02:41:12.465Z,69.37
2022-10-05T02:43:53.731Z,69.43
2022-10-05T02:47:00.431Z,69.65
2022-10-05T02:49:56.072Z,69.36
2022-10-05T02:52:36.747Z,69.44
2022-10-05T02:55:19.891Z,69.64
2022-10-05T02:58:16.497Z,69.77
2022-10-05T03:00:54.034Z,69.90
2022-10-05T03:04:12.100Z,69.68
2022-10-05T03:07:13.967Z,69.76
2022-10-05T03:10:00.936Z,70.21
2022-10-05T03:12:51.935Z,69.94
2022-10-05T03:15:33.357Z,70.07
2022-10-05T03:18:20.481Z,70.20
2022-10-05T03:21:23.565Z,70.13
2022-10-05T03:24:27.021Z,70.15
2022-10-05T03:27:17.597Z,70.26
2022-10-05T03:30:35.961Z,70.34
2022-10-05T03:33:24.873Z,70.11
2022-10-05T03:35:56.752Z,70.31
2022-10-05T03:38:48.162Z,70.51
2022-10-05T03:41:32.084Z,70.35
2022-10-05T03:45:04.636Z,70.39
2022-10-05T03:48:04.402Z,70.49
2022-10-05T03:50:52.267Z,70.41
2022-10-05T03:54:06.261Z,70.64
2022-10-05T03:57:14.244Z,70.25
2022-10-05T04:03:18.881Z,70.73
2022-10-05T04:05:56.876Z,70.83
2022-10-05T04:08:48.189Z,70.77
2022-10-05T04:11:37.421Z,70.72
2022-10-05T04:14:34.766Z,70.79
2022-10-05T04:17:13.545Z,70.94
2022-10-05T04:20:30.790Z,70.96
2022-10-05T04:23:22.012Z,71.15
2022-10-05T04:26:05.954Z,71.16
2022-10-05T04:28:36.323Z,71.28
2022-10-05T04:31:07.885Z,71.37
2022-10-05T04:33:38.244Z,71.22
2022-10-05T04:36:14.623Z,70.97
2022-10-05T04:39:15.095Z,71.04
2022-10-05T04:42:09.511Z,71.21
2022-10-05T04:44:58.967Z,71.64
2022-10-05T04:48:07.096Z,71.35
2022-10-05T04:50:44.796Z,71.31
2022-10-05T04:53:52.734Z,71.50
2022-10-05T04:56:36.840Z,71.77
2022-10-05T04:59:39.643Z,71.48
2022-10-05T05:02:46.605Z,71.64
2022-10-05T05:05:58.615Z,71.55
2022-10-05T05:08:49.388Z,71.63
2022-10-05T05:11:47.610Z,71.58
2022-10-05T05:14:24.137Z,71.79
2022-10-05T05:17:21.090Z,71.68
2022-10-05T05:19:59.211Z,71.79
2022-10-05T05:23:47.441Z,71.78
2022-10-05T05:26:34.541Z,71.83
2022-10-05T05:29:47.833Z,71.97
2022-10-05T05:32:56.882Z,72.15
2022-10-05T05:35:36.603Z,72.13
2022-10-05T05:58:27.041Z,72.42
2022-10-05T06:01:32.320Z,72.41
2022-10-05T06:04:28.872Z,72.38
2022-10-05T06:07:05.367Z,72.27
2022-10-05T06:09:54.752Z,72.34
2022-10-05T06:12:39.598Z,72.28
2022-10-05T06:15:39.842Z,72.27
2022-10-05T06:18:15.577Z,72.10
2022-10-05T06:20:54.496Z,71.79
2022-10-05T06:23:35.094Z,71.18
2022-10-05T06:26:31.377Z,71.03
2022-10-05T06:29:18.399Z,71.10
2022-10-05T06:32:29.257Z,71.34
2022-10-05T06:35:20.303Z,71.46
2022-10-05T06:38:25.193Z,71.72
2022-10-05T06:41:22.043Z,71.69
2022-10-05T06:44:00.250Z,71.31
2022-10-05T06:47:25.363Z,70.45
2022-10-05T06:50:32.145Z,70.05
2022-10-05T06:53:46.954Z,70.62
2022-10-05T06:56:38.122Z,70.97
2022-10-05T06:59:20.174Z,71.06
2022-10-05T07:02:06.017Z,70.95
2022-10-05T07:05:04.876Z,71.27
2022-10-05T07:07:46.375Z,71.27
2022-10-05T07:10:33.360Z,71.53
2022-10-05T07:13:38.771Z,71.68
2022-10-05T07:16:16.935Z,71.74
2022-10-05T07:19:19.443Z,71.72
2022-10-05T07:22:38.612Z,71.88
2022-10-05T07:25:29.295Z,71.81
2022-10-05T07:28:11.708Z,71.44
2022-10-05T07:31:08.229Z,71.01
2022-10-05T07:33:56.140Z,70.60
2022-10-05T07:37:33.079Z,70.63
2022-10-05T07:40:36.260Z,70.62
2022-10-05T07:43:16.575Z,70.67
2022-10-05T07:46:03.258Z,70.76
2022-10-05T07:48:50.801Z,70.78
2022-10-05T07:51:33.759Z,70.55
2022-10-05T07:54:18.087Z,70.88
2022-10-05T07:57:11.916Z,71.08
2022-10-05T07:59:54.714Z,70.62
2022-10-05T08:02:44.826Z,70.69
2022-10-05T08:05:42.200Z,70.70
2022-10-05T08:08:13.291Z,70.54
2022-10-05T08:10:55.759Z,70.68
2022-10-05T08:19:50.956Z,69.30
2022-10-05T08:22:36.859Z,69.12
2022-10-05T08:25:13.528Z,67.75
2022-10-05T08:28:11.088Z,66.99
2022-10-05T08:31:02.413Z,66.37
2022-10-05T08:33:43.906Z,66.76
2022-10-05T08:36:17.077Z,67.25
2022-10-05T08:38:47.285Z,67.38
2022-10-05T08:41:53.188Z,67.32
2022-10-05T08:45:01.602Z,66.64
2022-10-05T08:48:11.770Z,66.25
2022-10-05T08:50:56.839Z,65.29
2022-10-05T08:53:49.471Z,65.10
2022-10-05T08:57:07.838Z,63.92
2022-10-05T09:00:03.319Z,63.10
2022-10-05T09:06:22.589Z,65.24
2022-10-05T09:09:15.497Z,65.16
2022-10-05T09:12:20.391Z,65.59
2022-10-05T09:15:41.209Z,65.76
2022-10-05T09:18:28.720Z,66.68
2022-10-05T09:24:51.389Z,66.50
2022-10-05T09:27:32.716Z,66.69
2022-10-05T09:30:41.341Z,66.37
2022-10-05T09:33:55.231Z,66.59
2022-10-05T09:37:07.378Z,66.48
2022-10-05T09:39:37.502Z,66.29
2022-10-05T09:42:28.484Z,66.32
2022-10-05T09:45:23.651Z,66.25
2022-10-05T09:48:53.894Z,66.16
2022-10-05T09:52:04.501Z,65.89
2022-10-05T09:54:47.474Z,65.73
2022-10-05T09:58:03.902Z,65.46
2022-10-05T10:00:54.237Z,65.42
2022-10-05T10:04:11.896Z,64.80
2022-10-05T10:07:04.006Z,64.26
2022-10-05T10:10:31.364Z,63.95
2022-10-05T10:13:30.498Z,64.12
2022-10-05T10:16:37.968Z,63.28
2022-10-05T10:19:29.871Z,62.35
2022-10-05T10:22:42.952Z,62.56
2022-10-05T10:25:32.808Z,62.18
2022-10-05T10:28:32.039Z,61.83
2022-10-05T10:31:22.454Z,61.12
2022-10-05T10:34:21.283Z,61.34
2022-10-05T10:37:32.234Z,60.42
2022-10-05T10:40:37.645Z,61.17
2022-10-05T10:43:27.423Z,61.94
2022-10-05T10:46:06.958Z,61.56
2022-10-05T10:49:16.165Z,61.42
2022-10-05T10:52:19.281Z,61.75
2022-10-05T10:55:11.732Z,61.73
2022-10-05T10:57:56.506Z,61.38
2022-10-05T11:00:46.030Z,61.38
2022-10-05T11:04:08.832Z,61.38
2022-10-05T11:07:32.102Z,61.72
2022-10-05T11:10:26.450Z,62.03
2022-10-05T11:13:37.927Z,61.48
2022-10-05T11:16:58.845Z,61.36
2022-10-05T11:23:40.065Z,61.40
2022-10-05T11:33:18.140Z,60.03
2022-10-05T11:36:18.107Z,59.89
2022-10-05T11:39:40.748Z,60.22
2022-10-05T11:42:46.501Z,60.39
2022-10-05T11:55:09.224Z,60.13
2022-10-05T11:57:43.282Z,60.05
2022-10-05T12:00:18.540Z,60.39
2022-10-05T12:03:21.901Z,60.53
2022-10-05T12:06:31.257Z,60.38
2022-10-05T12:09:19.120Z,60.12
2022-10-05T12:12:06.419Z,60.08
2022-10-05T12:14:39.915Z,59.98
2022-10-05T12:17:21.598Z,60.30
2022-10-05T12:20:00.731Z,60.35
2022-10-05T12:23:20.391Z,60.13
2022-10-05T12:26:04.437Z,60.17
2022-10-05T12:28:58.808Z,60.05
2022-10-05T12:31:57.270Z,60.08
2022-10-05T12:34:59.001Z,60.16
2022-10-05T12:37:54.759Z,60.13
2022-10-05T12:40:52.736Z,60.00
2022-10-05T12:43:48.550Z,59.77
2022-10-05T12:46:45.261Z,59.54
2022-10-05T12:49:38.209Z,59.69
2022-10-05T12:52:33.968Z,59.88
2022-10-05T12:55:07.909Z,59.83
2022-10-05T12:58:05.847Z,59.83
2022-10-05T13:00:39.895Z,59.81
2022-10-05T13:03:39.123Z,59.83
2022-10-05T13:06:26.860Z,59.67
2022-10-05T13:09:10.597Z,59.61
2022-10-05T13:11:48.359Z,59.74
2022-10-05T13:14:57.806Z,59.71
2022-10-05T13:17:43.838Z,59.69
2022-10-05T13:20:21.513Z,59.68
2022-10-05T13:23:35.283Z,59.69
2022-10-05T13:26:18.905Z,59.88
2022-10-05T13:29:14.060Z,59.94
2022-10-05T13:31:54.723Z,59.91
2022-10-05T13:34:30.507Z,60.03
2022-10-05T13:37:02.699Z,60.14
2022-10-05T13:40:00.563Z,60.17
2022-10-05T13:42:48.908Z,60.10
2022-10-05T13:45:43.321Z,59.94
2022-10-05T13:48:41.061Z,60.00
2022-10-05T13:51:27.484Z,60.12
2022-10-05T13:54:09.818Z,60.13
2022-10-05T13:56:45.264Z,60.27
2022-10-05T13:59:37.603Z,60.15
2022-10-05T14:02:11.309Z,60.17
2022-10-05T14:04:52.306Z,60.27
2022-10-05T14:07:40.244Z,60.24
2022-10-05T14:10:15.370Z,60.37
2022-10-05T14:12:46.225Z,60.51
2022-10-05T14:15:30.418Z,60.58
2022-10-05T14:18:00.849Z,60.63
2022-10-05T14:20:34.773Z,60.71
2022-10-05T14:23:11.585Z,60.67
2022-10-05T14:25:54.274Z,60.84
2022-10-05T14:28:28.780Z,60.77
2022-10-05T14:31:05.892Z,60.80
2022-10-05T14:33:41.107Z,60.79
2022-10-05T14:36:37.459Z,60.91
2022-10-05T14:39:13.285Z,60.92
2022-10-05T14:41:52.536Z,60.97
2022-10-05T14:44:28.088Z,60.87
2022-10-05T14:47:12.872Z,61.05
2022-10-05T14:50:14.714Z,61.06
2022-10-05T14:53:04.713Z,61.04
2022-10-05T14:56:17.633Z,61.11
2022-10-05T14:59:09.851Z,61.11
2022-10-05T15:02:02.273Z,61.23
2022-10-05T15:04:50.354Z,61.32
2022-10-05T15:07:40.096Z,61.35
2022-10-05T15:10:27.231Z,61.48
2022-10-05T15:13:11.229Z,61.46
2022-10-05T15:16:06.169Z,61.54
2022-10-05T15:18:51.820Z,61.68
2022-10-05T15:21:25.166Z,61.82
2022-10-05T15:24:03.964Z,61.78
2022-10-05T15:26:35.642Z,61.83
2022-10-05T15:29:29.894Z,61.84
2022-10-05T15:32:15.188Z,61.93
2022-10-05T15:34:53.339Z,62.11
2022-10-05T15:37:52.057Z,62.04
2022-10-05T15:40:30.679Z,62.02
2022-10-05T15:43:11.024Z,62.18
2022-10-05T15:46:04.393Z,62.19
2022-10-05T15:49:01.043Z,62.30
2022-10-05T15:51:37.526Z,62.12
2022-10-05T15:54:40.741Z,62.28
2022-10-05T15:57:36.888Z,62.57
2022-10-05T16:00:16.399Z,62.53
2022-10-05T16:03:24.155Z,62.53
2022-10-05T16:06:21.636Z,62.81
2022-10-05T16:09:12.366Z,62.89
2022-10-05T16:11:55.707Z,62.95
2022-10-05T16:14:39.585Z,62.84
2022-10-05T16:17:39.584Z,62.89
2022-10-05T16:20:36.122Z,62.92
2022-10-05T16:23:25.153Z,63.15
2022-10-05T16:26:02.122Z,63.00
2022-10-05T16:28:50.228Z,63.35
2022-10-05T16:31:21.752Z,63.38
2022-10-05T16:34:25.368Z,63.39
2022-10-05T16:37:29.413Z,63.47
2022-10-05T16:40:02.564Z,63.49
2022-10-05T16:42:48.133Z,63.69
2022-10-05T16:45:28.648Z,63.71
2022-10-05T16:48:29.577Z,63.79
2022-10-05T16:51:47.883Z,63.92
2022-10-05T16:54:24.556Z,63.88
2022-10-05T16:57:06.253Z,64.02
2022-10-05T17:00:09.889Z,64.01
2022-10-05T17:03:04.723Z,64.15
2022-10-05T17:05:56.413Z,64.25
2022-10-05T17:09:13.028Z,64.42
2022-10-05T17:15:29.710Z,64.67
2022-10-05T17:18:20.106Z,64.81
2022-10-05T17:21:42.628Z,64.75
2022-10-05T17:24:34.357Z,64.80
2022-10-05T17:27:19.868Z,64.89
2022-10-05T17:29:56.579Z,64.98
2022-10-05T17:32:36.556Z,64.90
2022-10-05T17:35:41.116Z,65.08
2022-10-05T17:38:20.645Z,65.15
2022-10-05T17:41:33.348Z,65.15
2022-10-05T17:47:15.825Z,65.24
2022-10-05T17:50:19.477Z,65.42
2022-10-05T17:54:03.509Z,65.34
2022-10-05T17:56:51.013Z,65.42
2022-10-05T17:59:44.968Z,65.54
2022-10-05T18:02:19.914Z,65.64
2022-10-05T18:05:02.886Z,65.77
2022-10-05T18:07:34.974Z,65.73
2022-10-05T18:10:13.235Z,65.97
2022-10-05T18:12:45.698Z,65.95
2022-10-05T18:15:36.790Z,65.80
2022-10-05T18:18:33.183Z,65.83
2022-10-05T18:21:14.428Z,66.04
2022-10-05T18:24:35.982Z,66.20
2022-10-05T18:28:06.181Z,66.01
2022-10-05T18:31:11.785Z,66.29
2022-10-05T18:34:26.060Z,66.32
2022-10-05T18:37:15.871Z,66.38
2022-10-05T18:40:34.983Z,66.29
2022-10-05T18:43:41.914Z,66.40
2022-10-05T18:46:29.671Z,66.45
2022-10-05T18:49:11.493Z,66.52
2022-10-05T18:52:05.647Z,66.57
2022-10-05T18:55:14.377Z,66.65
2022-10-05T18:58:16.456Z,66.70
2022-10-05T19:01:40.463Z,66.75
2022-10-05T19:04:18.035Z,66.89
2022-10-05T19:07:16.943Z,66.94
2022-10-05T19:10:15.267Z,67.02
2022-10-05T19:13:14.180Z,66.98
2022-10-05T19:16:14.056Z,67.08
2022-10-05T19:19:29.356Z,67.08
2022-10-05T19:22:38.135Z,67.17
2022-10-05T19:25:33.992Z,67.21
2022-10-05T19:28:27.280Z,67.22
2022-10-05T19:31:24.175Z,67.38
2022-10-05T19:34:23.025Z,67.43
2022-10-05T19:37:31.492Z,67.48
2022-10-05T19:40:26.837Z,67.59
2022-10-05T19:43:24.146Z,67.59
2022-10-05T19:46:41.993Z,67.67
2022-10-05T19:49:12.058Z,67.69
2022-10-05T19:51:51.338Z,67.73
2022-10-05T19:54:30.437Z,67.84
2022-10-05T19:57:03.216Z,67.87
2022-10-05T19:59:35.093Z,67.93
2022-10-05T20:02:06.960Z,67.94
2022-10-05T20:04:42.178Z,68.02
2022-10-05T20:07:18.894Z,68.02
2022-10-05T20:10:01.357Z,68.03
2022-10-05T20:13:09.467Z,68.15
2022-10-05T20:15:57.519Z,68.29
2022-10-05T20:19:42.094Z,68.25
2022-10-05T20:26:59.206Z,68.38
2022-10-05T20:29:40.128Z,68.45
2022-10-05T20:32:20.847Z,68.38
2022-10-05T20:34:51.543Z,68.37
2022-10-05T20:37:22.026Z,68.56
2022-10-05T20:39:53.075Z,68.61
2022-10-05T20:42:24.267Z,68.60
2022-10-05T20:44:56.854Z,68.69
2022-10-05T20:47:28.084Z,68.80
2022-10-05T20:49:58.358Z,68.77
2022-10-05T20:52:29.811Z,68.91
2022-10-05T20:55:02.276Z,68.99
2022-10-05T20:57:33.959Z,69.06
2022-10-05T21:00:04.568Z,68.77
2022-10-05T21:02:35.086Z,68.94
2022-10-05T21:05:04.972Z,69.01
2022-10-05T21:07:36.115Z,69.01
2022-10-05T21:10:06.525Z,68.96
2022-10-05T21:12:37.129Z,69.18
2022-10-05T21:15:08.078Z,69.26
2022-10-05T21:17:38.446Z,69.35
2022-10-05T21:20:11.589Z,69.16
2022-10-05T21:27:26.860Z,69.49
2022-10-05T21:30:00.722Z,69.48
2022-10-05T21:32:31.370Z,69.64
2022-10-05T21:35:02.865Z,69.55
2022-10-05T21:37:33.254Z,69.61
2022-10-05T21:40:05.719Z,69.57
2022-10-05T21:42:35.076Z,69.55
2022-10-05T21:45:06.499Z,69.75
2022-10-05T21:47:35.515Z,69.79
2022-10-05T21:50:09.072Z,69.65
2022-10-05T21:52:38.618Z,69.71
2022-10-05T21:55:09.010Z,69.90
2022-10-05T21:57:39.182Z,69.82
2022-10-05T22:00:11.474Z,69.82
2022-10-05T22:02:40.425Z,69.80
2022-10-05T22:05:10.969Z,69.95
2022-10-05T22:07:46.587Z,69.96
2022-10-05T22:10:17.843Z,70.05
2022-10-05T22:12:47.668Z,70.07
2022-10-05T22:15:18.104Z,70.22
2022-10-05T22:17:47.073Z,70.48
2022-10-05T22:20:20.611Z,70.67
2022-10-05T22:22:52.785Z,70.46
2022-10-05T22:25:23.358Z,70.57
2022-10-05T22:27:52.493Z,70.68
2022-10-05T22:30:22.244Z,70.68
2022-10-05T22:32:54.495Z,70.69
2022-10-05T22:35:24.680Z,70.74
2022-10-05T22:37:55.269Z,70.67
2022-10-05T22:40:25.654Z,70.60
2022-10-05T22:42:58.484Z,70.71
2022-10-05T22:45:32.315Z,70.73
2022-10-05T22:48:04.260Z,70.85
2022-10-05T22:50:34.578Z,70.74
2022-10-05T22:53:04.904Z,70.75
2022-10-05T22:55:35.832Z,70.95
2022-10-05T22:58:06.007Z,70.85
2022-10-05T23:00:57.059Z,70.85
2022-10-05T23:03:26.026Z,70.94
2022-10-05T23:06:03.418Z,70.81
2022-10-05T23:08:35.905Z,71.16
2022-10-05T23:11:11.661Z,71.16
2022-10-05T23:13:46.378Z,71.05
2022-10-05T23:16:19.324Z,70.92
2022-10-05T23:18:50.771Z,71.09
2022-10-05T23:21:23.745Z,71.21
2022-10-05T23:23:52.852Z,71.25
2022-10-05T23:26:25.253Z,71.33
2022-10-05T23:28:54.781Z,71.26
2022-10-05T23:31:26.740Z,71.38
2022-10-05T23:33:56.616Z,71.40
2022-10-05T23:36:32.529Z,71.40
2022-10-05T23:39:01.946Z,71.31
2022-10-05T23:41:32.543Z,71.39
2022-10-05T23:44:04.853Z,71.44
2022-10-05T23:46:37.138Z,71.27
2022-10-05T23:49:06.570Z,71.59
2022-10-05T23:51:36.095Z,71.66
2022-10-05T23:54:08.014Z,71.59
2022-10-05T23:56:36.777Z,71.56
2022-10-05T23:59:09.614Z,71.70
